Terminal Aerodrome Forecast
Issued by NWS Wilmington, OH

Current Version | Previous Version | Graphics & Text | Print | Product List | Glossary On
Versions: 1 2 3 4 5 6 7 8 9 10 11 12 13 14 15 16 17 18 19
000
FTUS41 KILN 161132
TAFCMH
TAF
KCMH 161132Z 1612/1712 30015G23KT P6SM OVC015
      TEMPO 1612/1613 OVC025
     FM161400 29011KT P6SM OVC015
     FM161800 29012KT P6SM OVC025
     FM162300 30004KT P6SM OVC025
     FM170400 VRB02KT P6SM SCT025 SCT250=

USA.gov is the U.S. government's official web portal to all federal, state and local government web resources and services.